createdAt,value
2019-03-08T00:02:40.834Z,6.80
2019-03-08T00:05:30.010Z,6.80
2019-03-08T00:08:00.013Z,6.80
2019-03-08T00:10:49.265Z,6.80
2019-03-08T00:13:38.637Z,6.80
2019-03-08T00:16:38.310Z,6.80
2019-03-08T00:19:27.385Z,6.80
2019-03-08T00:22:09.484Z,6.80
2019-03-08T00:24:51.864Z,6.80
2019-03-08T00:27:33.344Z,6.90
2019-03-08T00:30:15.536Z,6.90
2019-03-08T00:32:57.844Z,6.90
2019-03-08T00:35:39.929Z,6.90
2019-03-08T00:38:21.440Z,6.90
2019-03-08T00:41:02.966Z,6.90
2019-03-08T00:43:44.912Z,6.90
2019-03-08T00:46:26.654Z,6.80
2019-03-08T00:49:09.070Z,6.80
2019-03-08T00:51:50.863Z,6.80
2019-03-08T00:54:33.006Z,6.70
2019-03-08T00:57:14.565Z,6.70
2019-03-08T00:59:56.060Z,6.70
2019-03-08T01:02:37.717Z,6.70
2019-03-08T01:05:20.061Z,6.70
2019-03-08T01:08:02.240Z,6.70
2019-03-08T01:10:45.534Z,6.70
2019-03-08T01:13:29.067Z,6.70
2019-03-08T01:16:10.509Z,6.60
2019-03-08T01:18:52.127Z,6.60
2019-03-08T01:21:35.757Z,6.60
2019-03-08T01:24:17.804Z,6.60
2019-03-08T01:26:59.230Z,6.60
2019-03-08T01:29:41.620Z,6.60
2019-03-08T01:32:24.016Z,6.60
2019-03-08T01:35:06.172Z,6.60
2019-03-08T01:37:48.508Z,6.60
2019-03-08T01:40:30.304Z,6.60
2019-03-08T01:43:13.874Z,6.60
2019-03-08T01:45:56.077Z,6.60
2019-03-08T01:48:37.457Z,6.60
2019-03-08T01:51:19.696Z,6.60
2019-03-08T01:54:01.196Z,6.60
2019-03-08T01:56:43.284Z,6.60
2019-03-08T01:59:13.147Z,6.50
2019-03-08T02:01:43.195Z,6.50
2019-03-08T02:04:13.223Z,6.50
2019-03-08T02:07:02.478Z,6.50
2019-03-08T02:09:51.632Z,6.50
2019-03-08T02:12:33.884Z,6.50
2019-03-08T02:15:16.036Z,6.40
2019-03-08T02:17:58.443Z,6.40
2019-03-08T02:29:11.611Z,6.40
2019-03-08T02:31:53.984Z,6.30
2019-03-08T02:34:36.073Z,6.30
2019-03-08T02:37:17.637Z,6.30
2019-03-08T02:42:55.826Z,6.20
2019-03-08T02:45:25.837Z,6.10
2019-03-08T02:47:55.863Z,6.10
2019-03-08T02:50:44.925Z,6.00
2019-03-08T02:53:47.957Z,6.00
2019-03-08T02:56:30.154Z,6.00
2019-03-08T02:59:00.339Z,5.90
2019-03-08T03:02:08.932Z,5.90
2019-03-08T03:04:50.921Z,5.90
2019-03-08T03:07:32.756Z,5.90
2019-03-08T03:10:15.050Z,5.90
2019-03-08T03:12:56.436Z,5.90
2019-03-08T03:15:39.205Z,5.90
2019-03-08T03:18:21.114Z,5.90
2019-03-08T03:21:02.747Z,5.90
2019-03-08T03:23:44.304Z,5.90
2019-03-08T03:26:26.548Z,5.90
2019-03-08T03:29:08.502Z,5.90
2019-03-08T03:31:50.930Z,5.90
2019-03-08T03:34:32.850Z,5.90
2019-03-08T03:37:14.295Z,5.90
2019-03-08T03:39:55.816Z,5.90
2019-03-08T03:42:40.584Z,5.90
2019-03-08T03:45:23.175Z,5.90
2019-03-08T03:48:06.389Z,5.90
2019-03-08T03:50:48.562Z,5.90
2019-03-08T03:53:30.062Z,5.90
2019-03-08T03:56:12.018Z,5.90
2019-03-08T03:58:53.928Z,5.90
2019-03-08T04:01:39.236Z,5.90
2019-03-08T04:04:21.518Z,5.90
2019-03-08T04:07:03.425Z,5.90
2019-03-08T04:09:52.588Z,5.90
2019-03-08T04:12:54.408Z,5.90
2019-03-08T04:15:36.583Z,5.90
2019-03-08T04:18:18.032Z,5.90
2019-03-08T04:20:59.815Z,5.90
2019-03-08T04:23:41.857Z,5.90
2019-03-08T04:26:23.353Z,5.90
2019-03-08T04:32:01.488Z,5.90
2019-03-08T04:34:43.153Z,5.90
2019-03-08T04:37:23.578Z,5.90
2019-03-08T04:40:12.836Z,5.90
2019-03-08T04:42:53.080Z,5.90
2019-03-08T04:45:42.280Z,5.90
2019-03-08T04:48:23.886Z,5.80
2019-03-08T04:50:53.936Z,5.80
2019-03-08T04:53:43.146Z,5.80
2019-03-08T04:59:14.352Z,5.80
2019-03-08T05:02:03.528Z,5.80
2019-03-08T05:04:45.821Z,5.80
2019-03-08T05:07:28.561Z,5.80
2019-03-08T05:10:10.290Z,5.80
2019-03-08T05:12:52.785Z,5.80
2019-03-08T05:15:35.104Z,5.80
2019-03-08T05:18:19.747Z,5.80
2019-03-08T05:21:01.313Z,5.80
2019-03-08T05:23:42.892Z,5.80
2019-03-08T05:26:23.216Z,5.80
2019-03-08T05:29:12.502Z,5.70
2019-03-08T05:32:13.421Z,5.70
2019-03-08T05:37:43.874Z,5.60
2019-03-08T05:40:25.990Z,5.50
2019-03-08T05:43:07.583Z,5.50
2019-03-08T05:45:49.053Z,5.50
2019-03-08T05:48:31.013Z,5.40
2019-03-08T05:51:13.352Z,5.40
2019-03-08T05:53:55.123Z,5.40
2019-03-08T05:56:36.648Z,5.40
2019-03-08T05:59:18.034Z,5.30
2019-03-08T06:01:59.503Z,5.30
2019-03-08T06:07:37.820Z,5.30
2019-03-08T06:10:39.188Z,5.30
2019-03-08T06:13:20.791Z,5.20
2019-03-08T06:16:02.704Z,5.20
2019-03-08T06:18:45.022Z,5.20
2019-03-08T06:21:27.297Z,5.20
2019-03-08T06:24:09.615Z,5.20
2019-03-08T06:26:39.752Z,5.20
2019-03-08T06:29:51.739Z,5.20
2019-03-08T06:32:52.979Z,5.20
2019-03-08T06:35:35.190Z,5.20
2019-03-08T06:38:17.515Z,5.20
2019-03-08T06:40:47.548Z,5.30
2019-03-08T06:43:36.722Z,5.20
2019-03-08T06:49:26.686Z,5.30
2019-03-08T06:52:08.961Z,5.30
2019-03-08T06:54:39.032Z,5.30
2019-03-08T06:57:28.307Z,5.40
2019-03-08T07:00:36.574Z,5.40
2019-03-08T07:03:18.397Z,5.40
2019-03-08T07:05:48.475Z,5.40
2019-03-08T07:08:37.649Z,5.40
2019-03-08T07:11:26.797Z,5.40
2019-03-08T07:14:09.334Z,5.40
2019-03-08T07:16:51.171Z,5.40
2019-03-08T07:19:40.560Z,5.50
2019-03-08T07:22:36.461Z,5.40
2019-03-08T07:25:37.161Z,5.50
2019-03-08T07:28:34.192Z,5.50
2019-03-08T07:31:34.981Z,5.50
2019-03-08T07:34:35.881Z,5.50
2019-03-08T07:37:25.314Z,5.50
2019-03-08T07:40:17.463Z,5.60
2019-03-08T07:43:15.668Z,5.60
2019-03-08T07:46:16.598Z,5.60
2019-03-08T07:49:07.740Z,5.70
2019-03-08T07:51:55.633Z,5.70
2019-03-08T07:54:52.899Z,5.80
2019-03-08T07:57:32.182Z,5.80
2019-03-08T08:00:25.482Z,5.80
2019-03-08T08:03:11.348Z,5.90
2019-03-08T08:05:57.669Z,5.90
2019-03-08T08:08:30.148Z,6.00
2019-03-08T08:11:07.449Z,6.00
2019-03-08T08:13:52.549Z,6.00
2019-03-08T08:16:50.861Z,6.00
2019-03-08T08:19:39.909Z,6.00
2019-03-08T08:22:27.668Z,6.10
2019-03-08T08:25:13.804Z,6.10
2019-03-08T08:27:54.416Z,6.10
2019-03-08T08:30:43.671Z,6.20
2019-03-08T08:33:29.172Z,6.20
2019-03-08T08:36:18.827Z,6.30
2019-03-08T08:39:06.948Z,6.30
2019-03-08T08:41:59.094Z,6.40
2019-03-08T08:44:53.059Z,6.40
2019-03-08T08:47:29.796Z,6.40
2019-03-08T08:50:21.979Z,6.40
2019-03-08T08:53:09.622Z,6.40
2019-03-08T08:55:57.156Z,6.40
2019-03-08T08:58:34.259Z,6.40
2019-03-08T09:01:29.240Z,6.40
2019-03-08T09:04:17.101Z,6.50
2019-03-08T09:07:24.237Z,6.50
2019-03-08T09:10:13.430Z,6.60
2019-03-08T09:13:05.073Z,6.70
2019-03-08T09:15:40.364Z,6.80
2019-03-08T09:18:22.392Z,6.80
2019-03-08T09:21:04.443Z,6.80
2019-03-08T09:23:40.133Z,6.90
2019-03-08T09:26:29.321Z,6.80
2019-03-08T09:29:21.347Z,6.90
2019-03-08T09:32:10.463Z,7.00
2019-03-08T09:34:48.189Z,7.10
2019-03-08T09:37:32.037Z,7.10
2019-03-08T09:40:21.604Z,7.10
2019-03-08T09:43:11.101Z,7.00
2019-03-08T09:45:54.632Z,6.90
2019-03-08T09:48:59.357Z,6.80
2019-03-08T09:51:46.970Z,6.80
2019-03-08T09:54:36.322Z,6.80
2019-03-08T09:57:19.487Z,6.80
2019-03-08T10:00:14.862Z,6.90
2019-03-08T10:03:06.848Z,7.00
2019-03-08T10:05:54.697Z,7.00
2019-03-08T10:08:35.233Z,7.10
2019-03-08T10:11:14.296Z,7.40
2019-03-08T10:14:13.160Z,8.00
2019-03-08T10:16:53.394Z,8.30
2019-03-08T10:19:45.697Z,8.40
2019-03-08T10:22:35.226Z,8.70
2019-03-08T10:25:24.987Z,9.10
2019-03-08T10:28:03.495Z,9.30
2019-03-08T10:30:39.472Z,9.40
2019-03-08T10:33:27.655Z,9.50
2019-03-08T10:36:05.616Z,9.70
2019-03-08T10:38:57.591Z,9.50
2019-03-08T10:41:46.357Z,9.50
2019-03-08T10:44:50.732Z,9.90
2019-03-08T10:47:42.869Z,10.20
2019-03-08T10:50:25.272Z,10.00
2019-03-08T10:53:07.025Z,9.90
2019-03-08T10:55:47.784Z,9.80
2019-03-08T10:58:55.220Z,9.50
2019-03-08T11:01:51.360Z,9.30
2019-03-08T11:04:32.512Z,9.10
2019-03-08T11:07:24.275Z,8.90
2019-03-08T11:10:12.084Z,8.90
2019-03-08T11:12:59.555Z,8.80
2019-03-08T11:15:53.991Z,8.80
2019-03-08T11:18:49.034Z,8.70
2019-03-08T11:21:36.722Z,8.60
2019-03-08T11:24:39.074Z,8.60
2019-03-08T11:27:26.680Z,8.50
2019-03-08T11:30:10.619Z,8.40
2019-03-08T11:32:55.181Z,8.30
2019-03-08T11:35:36.676Z,8.20
2019-03-08T11:38:15.465Z,8.10
2019-03-08T11:41:02.275Z,8.20
2019-03-08T11:43:40.019Z,8.40
2019-03-08T11:46:27.761Z,8.60
2019-03-08T11:49:06.468Z,8.90
2019-03-08T11:51:54.184Z,9.30
2019-03-08T11:54:43.332Z,9.70
2019-03-08T11:57:24.923Z,10.20
2019-03-08T12:00:19.764Z,10.60
2019-03-08T12:03:07.761Z,10.90
2019-03-08T12:05:56.821Z,10.90
2019-03-08T12:08:44.537Z,10.90
2019-03-08T12:11:46.846Z,11.00
2019-03-08T12:14:30.875Z,11.10
2019-03-08T12:17:26.012Z,11.20
2019-03-08T12:20:13.938Z,11.20
2019-03-08T12:22:55.872Z,10.90
2019-03-08T12:25:43.677Z,10.50
2019-03-08T12:28:32.813Z,10.10
2019-03-08T12:31:12.009Z,9.70
2019-03-08T12:34:04.267Z,9.40
2019-03-08T12:36:45.817Z,9.20
2019-03-08T12:39:41.338Z,9.10
2019-03-08T12:42:29.167Z,9.00
2019-03-08T12:45:12.733Z,9.10
2019-03-08T12:47:57.360Z,9.20
2019-03-08T12:50:38.908Z,9.60
2019-03-08T12:53:24.041Z,9.80
2019-03-08T12:56:17.550Z,10.40
2019-03-08T12:59:02.176Z,10.70
2019-03-08T13:01:41.547Z,11.00
2019-03-08T13:04:21.540Z,11.30
2019-03-08T13:07:09.085Z,11.60
2019-03-08T13:09:46.699Z,11.70
2019-03-08T13:12:17.192Z,11.70
2019-03-08T13:14:47.271Z,11.40
2019-03-08T13:17:17.813Z,11.10
2019-03-08T13:19:47.872Z,10.80
2019-03-08T13:22:18.178Z,10.60
2019-03-08T13:24:48.328Z,10.40
2019-03-08T13:27:20.906Z,10.20
2019-03-08T13:29:51.160Z,10.30
2019-03-08T13:32:21.316Z,9.80
2019-03-08T13:34:51.338Z,9.70
2019-03-08T13:37:21.400Z,9.60
2019-03-08T13:39:51.432Z,9.60
2019-03-08T13:42:21.651Z,9.70
2019-03-08T13:44:52.003Z,9.80
2019-03-08T13:47:22.072Z,9.80
2019-03-08T13:49:52.000Z,9.80
2019-03-08T13:52:22.061Z,9.90
2019-03-08T13:54:52.081Z,9.80
2019-03-08T13:57:23.326Z,9.90
2019-03-08T13:59:53.291Z,10.10
2019-03-08T14:02:23.322Z,10.10
2019-03-08T14:04:53.582Z,10.20
2019-03-08T14:07:23.690Z,10.30
2019-03-08T14:09:54.044Z,10.50
2019-03-08T14:12:24.162Z,10.70
2019-03-08T14:14:55.476Z,10.90
2019-03-08T14:17:25.616Z,11.10
2019-03-08T14:19:55.807Z,11.10
2019-03-08T14:22:25.875Z,11.10
2019-03-08T14:24:56.207Z,11.10
2019-03-08T14:27:26.180Z,11.00
2019-03-08T14:29:59.223Z,10.90
2019-03-08T14:32:28.366Z,10.90
2019-03-08T14:34:58.520Z,10.80
2019-03-08T14:37:28.481Z,10.70
2019-03-08T14:39:58.635Z,10.60
2019-03-08T14:42:45.884Z,10.60
2019-03-08T14:45:20.593Z,10.70
2019-03-08T14:47:52.838Z,10.70
2019-03-08T14:50:22.988Z,10.70
2019-03-08T14:52:55.265Z,10.60
2019-03-08T14:55:24.871Z,10.50
2019-03-08T14:57:55.285Z,10.50
2019-03-08T15:00:29.100Z,10.40
2019-03-08T15:02:58.694Z,10.30
2019-03-08T15:05:28.833Z,10.20
2019-03-08T15:07:58.863Z,10.10
2019-03-08T15:10:29.022Z,10.00
2019-03-08T15:12:59.100Z,9.90
2019-03-08T15:15:29.241Z,9.80
2019-03-08T15:17:59.277Z,9.70
2019-03-08T15:20:29.646Z,9.60
2019-03-08T15:22:59.667Z,9.60
2019-03-08T15:25:31.376Z,9.50
2019-03-08T15:28:01.556Z,9.40
2019-03-08T15:30:31.729Z,9.40
2019-03-08T15:33:02.160Z,9.30
2019-03-08T15:35:32.362Z,9.40
2019-03-08T15:38:02.395Z,9.40
2019-03-08T15:40:33.434Z,9.50
2019-03-08T15:43:03.681Z,9.60
2019-03-08T15:45:33.997Z,9.60
2019-03-08T15:48:04.051Z,9.60
2019-03-08T15:50:34.202Z,9.50
2019-03-08T15:53:23.694Z,9.40
2019-03-08T15:56:05.804Z,9.30
2019-03-08T15:58:47.859Z,9.20
2019-03-08T16:01:30.249Z,9.10
2019-03-08T16:04:13.018Z,9.00
2019-03-08T16:06:55.213Z,9.00
2019-03-08T16:09:36.945Z,8.90
2019-03-08T16:12:18.921Z,8.80
2019-03-08T16:15:00.988Z,8.70
2019-03-08T16:17:41.429Z,8.70
2019-03-08T16:20:30.701Z,8.60
2019-03-08T16:23:12.881Z,8.60
2019-03-08T16:25:54.925Z,8.50
2019-03-08T16:28:36.486Z,8.50
2019-03-08T16:31:37.756Z,8.40
2019-03-08T16:34:19.764Z,8.40
2019-03-08T16:37:10.801Z,8.40
2019-03-08T16:40:11.332Z,8.30
2019-03-08T16:49:54.724Z,8.20
2019-03-08T16:53:04.846Z,8.20
2019-03-08T16:56:12.493Z,8.10
2019-03-08T16:59:21.885Z,8.10
2019-03-08T17:02:30.297Z,8.10
2019-03-08T17:05:23.600Z,8.00
2019-03-08T17:08:24.412Z,8.00
2019-03-08T17:11:13.231Z,8.00
2019-03-08T17:14:01.380Z,7.90
2019-03-08T17:17:02.836Z,7.90
2019-03-08T17:20:07.024Z,7.90
2019-03-08T17:23:02.707Z,7.90
2019-03-08T17:26:03.208Z,7.80
2019-03-08T17:29:04.308Z,7.80
2019-03-08T17:31:51.568Z,7.80
2019-03-08T17:34:45.910Z,7.80
2019-03-08T17:41:05.670Z,7.80
2019-03-08T17:43:54.952Z,7.70
2019-03-08T17:46:44.137Z,7.70
2019-03-08T17:52:40.432Z,7.70
2019-03-08T17:55:41.930Z,7.70
2019-03-08T17:58:36.452Z,7.60
2019-03-08T18:01:24.731Z,7.60
2019-03-08T18:04:13.948Z,7.60
2019-03-08T18:07:00.084Z,7.60
2019-03-08T18:09:39.717Z,7.60
2019-03-08T18:12:34.844Z,7.60
2019-03-08T18:15:26.941Z,7.60
2019-03-08T18:18:02.782Z,7.50
2019-03-08T18:21:09.743Z,7.50
2019-03-08T18:23:57.164Z,7.50
2019-03-08T18:26:34.813Z,7.50
2019-03-08T18:29:12.656Z,7.50
2019-03-08T18:31:58.219Z,7.50
2019-03-08T18:35:06.498Z,7.50
2019-03-08T18:38:06.224Z,7.50
2019-03-08T18:40:54.506Z,7.50
2019-03-08T18:47:13.444Z,7.40
2019-03-08T18:50:16.887Z,7.50
2019-03-08T18:53:18.430Z,7.50
2019-03-08T18:56:19.450Z,7.40
2019-03-08T18:59:09.801Z,7.50
2019-03-08T19:02:18.394Z,7.40
2019-03-08T19:05:19.804Z,7.40
2019-03-08T19:08:09.857Z,7.40
2019-03-08T19:11:02.583Z,7.40
2019-03-08T19:14:06.592Z,7.40
2019-03-08T19:17:17.223Z,7.40
2019-03-08T19:23:37.727Z,7.40
2019-03-08T19:26:26.109Z,7.40
2019-03-08T19:29:27.635Z,7.30
2019-03-08T19:35:37.897Z,7.40
2019-03-08T19:38:58.671Z,7.40
2019-03-08T19:41:59.562Z,7.40
2019-03-08T19:45:00.531Z,7.40
2019-03-08T19:47:56.649Z,7.40
2019-03-08T19:50:53.383Z,7.40
2019-03-08T19:53:54.506Z,7.40
2019-03-08T19:57:16.473Z,7.40
2019-03-08T20:00:23.880Z,7.40
2019-03-08T20:03:28.238Z,7.40
2019-03-08T20:06:28.785Z,7.40
2019-03-08T20:09:29.814Z,7.40
2019-03-08T20:12:22.822Z,7.40
2019-03-08T20:15:30.323Z,7.40
2019-03-08T20:18:31.580Z,7.40
2019-03-08T20:21:24.209Z,7.40
2019-03-08T20:24:18.591Z,7.40
2019-03-08T20:27:22.551Z,7.50
2019-03-08T20:30:23.824Z,7.50
2019-03-08T20:33:43.918Z,7.50
2019-03-08T20:36:33.558Z,7.50
2019-03-08T20:39:24.460Z,7.50
2019-03-08T20:42:45.459Z,7.50
2019-03-08T20:45:54.665Z,7.50
2019-03-08T20:48:24.779Z,7.50
2019-03-08T20:51:14.154Z,7.50
2019-03-08T20:54:03.648Z,7.50
2019-03-08T20:56:34.123Z,7.50
2019-03-08T20:59:42.710Z,7.50
2019-03-08T21:02:13.703Z,7.50
2019-03-08T21:04:44.565Z,7.50
2019-03-08T21:07:33.722Z,7.50
2019-03-08T21:10:16.045Z,7.60
2019-03-08T21:12:58.312Z,7.60
2019-03-08T21:15:39.868Z,7.60
2019-03-08T21:18:22.134Z,7.60
2019-03-08T21:20:52.396Z,7.60
2019-03-08T21:23:41.598Z,7.60
2019-03-08T21:26:23.357Z,7.60
2019-03-08T21:29:04.849Z,7.60
2019-03-08T21:31:47.231Z,7.60
2019-03-08T21:34:29.489Z,7.60
2019-03-08T21:37:11.290Z,7.60
2019-03-08T21:39:51.653Z,7.60
2019-03-08T21:42:40.862Z,7.60
2019-03-08T21:45:12.353Z,7.60
2019-03-08T21:48:21.082Z,7.70
2019-03-08T21:51:07.540Z,7.70
2019-03-08T21:53:38.682Z,7.70
2019-03-08T21:56:28.788Z,7.70
2019-03-08T21:58:59.067Z,7.70
2019-03-08T22:01:48.910Z,7.70
2019-03-08T22:04:41.028Z,7.70
2019-03-08T22:07:22.945Z,7.70
2019-03-08T22:10:23.817Z,7.70
2019-03-08T22:13:05.613Z,7.70
2019-03-08T22:15:36.101Z,7.70
2019-03-08T22:18:25.848Z,7.70
2019-03-08T22:21:29.714Z,7.70
2019-03-08T22:24:13.675Z,7.70
2019-03-08T22:26:55.525Z,7.70
2019-03-08T22:29:37.425Z,7.70
2019-03-08T22:32:19.780Z,7.70
2019-03-08T22:35:01.929Z,7.70
2019-03-08T22:37:32.361Z,7.70
2019-03-08T22:40:21.908Z,7.70
2019-03-08T22:43:11.121Z,7.80
2019-03-08T22:45:52.936Z,7.80
2019-03-08T22:48:35.072Z,7.80
2019-03-08T22:51:16.712Z,7.80
2019-03-08T22:53:46.854Z,7.80
2019-03-08T22:56:36.087Z,7.80
2019-03-08T22:59:25.475Z,7.80
2019-03-08T23:02:08.039Z,7.80
2019-03-08T23:04:49.970Z,7.80
2019-03-08T23:07:32.304Z,7.80
2019-03-08T23:10:14.864Z,7.80
2019-03-08T23:18:56.891Z,7.90
2019-03-08T23:21:38.688Z,7.90
2019-03-08T23:24:20.402Z,7.90
2019-03-08T23:30:29.008Z,7.80
2019-03-08T23:33:10.422Z,7.80
2019-03-08T23:35:52.800Z,7.80
2019-03-08T23:38:23.407Z,7.80
2019-03-08T23:41:12.628Z,7.80
2019-03-08T23:44:01.716Z,7.90
2019-03-08T23:49:46.328Z,7.90
2019-03-08T23:52:16.405Z,8.00
2019-03-08T23:54:46.848Z,8.00
2019-03-08T23:57:17.433Z,8.00
2019-03-08T23:59:47.484Z,8.10
